M I D A S
Marine Information and Data Acquisition System
Tripno 1641 of the Zeeleeuw from 2009-02-06 08:09:41 to 2009-02-06 17:33:33
Back to CruiseResearch ActivitiesStationsMapUnderway DataData graphs

EquipmentUnitsComment
TimeDGPSUTC
LatitudeDGPSDM.mWGS84
LongitudeDGPSDM.mWGS84
HeadingGyrodeg 
SOGDGPSknotsSpeed over ground
COGDGPSdegCourse over ground
DepthEcho soundermeters200 kHz
Missing or incorrect values are displayed as -999
Navigation data collected by the RV Zeeleeuw from 2009-02-06 08:03:12 to 2009-02-06 17:39:24
                                                                                    Next 1000 lines
Time Latitude Longitude Heading SOG COG Depth
2009-02-06 08:03:23 51°13.662 2°55.956 113.5 0.7 293 8.3
2009-02-06 08:03:28 51°13.663 2°55.953 113.2 1 294 8.3
2009-02-06 08:03:32 51°13.664 2°55.951 113.2 1.4 296 8.1
2009-02-06 08:03:38 51°13.665 2°55.947 113.4 1.8 296 8.2
2009-02-06 08:03:43 51°13.666 2°55.943 114.2 2.2 297 8.4
2009-02-06 08:03:48 51°13.668 2°55.938 114.6 2.5 298 -999
2009-02-06 08:03:53 51°13.67 2°55.932 115.6 2.9 298 -999
2009-02-06 08:03:58 51°13.672 2°55.926 116.1 3.1 299 -999
2009-02-06 08:04:03 51°13.674 2°55.92 116.2 3.2 298 -999
2009-02-06 08:04:08 51°13.677 2°55.914 115.8 3.3 299 -999
2009-02-06 08:04:13 51°13.679 2°55.907 115.2 3.3 297 -999
2009-02-06 08:04:18 51°13.681 2°55.901 114.4 3.3 297 -999
2009-02-06 08:04:23 51°13.683 2°55.894 113.5 3.4 295 -999
2009-02-06 08:04:28 51°13.685 2°55.887 112.1 3.4 294 -999
2009-02-06 08:04:33 51°13.686 2°55.88 110.6 3.5 293 -999
2009-02-06 08:04:38 51°13.688 2°55.873 109.2 3.5 292 -999
2009-02-06 08:04:43 51°13.69 2°55.866 107.7 3.5 290 -999
2009-02-06 08:04:48 51°13.692 2°55.858 106.3 3.6 290 -999
2009-02-06 08:04:53 51°13.693 2°55.851 104.9 3.6 288 -999
2009-02-06 08:04:58 51°13.695 2°55.843 103.4 3.7 286 -999
2009-02-06 08:05:03 51°13.696 2°55.835 101.9 3.8 284 -999
2009-02-06 08:05:08 51°13.697 2°55.827 100.3 3.9 283 -999
2009-02-06 08:05:13 51°13.698 2°55.818 98.5 4 282 -999
2009-02-06 08:05:18 51°13.699 2°55.809 96.6 4.1 279 -999
2009-02-06 08:05:23 51°13.7 2°55.8 94.5 4.1 277 -999
2009-02-06 08:05:28 51°13.701 2°55.791 92.4 4.1 276 -999
2009-02-06 08:05:33 51°13.701 2°55.783 90 3.9 274 -999
2009-02-06 08:05:38 51°13.701 2°55.774 87.9 3.7 271 -999
2009-02-06 08:05:43 51°13.701 2°55.767 85.9 3.4 269 -999
2009-02-06 08:05:48 51°13.701 2°55.759 83.9 3.3 269 -999
2009-02-06 08:05:53 51°13.701 2°55.753 82.3 3 268 -999
2009-02-06 08:05:58 51°13.701 2°55.747 80.6 2.6 267 -999
2009-02-06 08:06:03 51°13.701 2°55.742 78.2 2.1 267 13.7
2009-02-06 08:06:08 51°13.701 2°55.739 76.6 1.5 270 13.7
2009-02-06 08:06:12 51°13.701 2°55.737 74.5 0.7 288 13.8
2009-02-06 08:06:18 51°13.702 2°55.737 71.2 0.7 4 13.8
2009-02-06 08:06:23 51°13.704 2°55.739 65.3 1.3 36 13.8
2009-02-06 08:06:28 51°13.706 2°55.742 58 2.1 33 13.8
2009-02-06 08:06:32 51°13.708 2°55.744 48.6 2.5 30 13.7
2009-02-06 08:06:38 51°13.712 2°55.746 38.7 2.4 20 13.7
2009-02-06 08:06:43 51°13.715 2°55.748 29.6 2.2 18 13.8
2009-02-06 08:06:48 51°13.717 2°55.749 22.6 1.7 10 14
2009-02-06 08:06:53 51°13.719 2°55.749 18.2 1.3 11 14
2009-02-06 08:06:58 51°13.72 2°55.749 14.5 0.8 -999 14
2009-02-06 08:07:03 51°13.72 2°55.749 9.8 0.2 342 14
2009-02-06 08:07:07 51°13.72 2°55.749 5.3 0.4 195 13.9
2009-02-06 08:07:13 51°13.718 2°55.749 1.7 0.8 184 13.9
2009-02-06 08:07:18 51°13.717 2°55.749 359.1 0.9 186 13.9
2009-02-06 08:07:23 51°13.716 2°55.749 357.1 0.7 181 14
2009-02-06 08:07:27 51°13.715 2°55.748 355.6 0.6 189 14
2009-02-06 08:07:33 51°13.714 2°55.748 354.1 0.4 190 -999
2009-02-06 08:07:38 51°13.714 2°55.748 352 0.2 254 -999
2009-02-06 08:07:43 51°13.715 2°55.748 349.9 0.4 318 -999
2009-02-06 08:07:48 51°13.715 2°55.747 346.6 0.6 328 -999
2009-02-06 08:07:53 51°13.716 2°55.746 343.8 1 330 -999
2009-02-06 08:07:58 51°13.718 2°55.744 339.3 1.5 330 -999
2009-02-06 08:08:03 51°13.721 2°55.742 335.8 2 332 -999
2009-02-06 08:08:08 51°13.723 2°55.739 332.7 2.5 328 -999
2009-02-06 08:08:13 51°13.727 2°55.736 330.9 3 328 4.7
2009-02-06 08:08:18 51°13.731 2°55.732 329.6 3.6 326 14
2009-02-06 08:08:23 51°13.736 2°55.727 328.6 4.1 327 13.9
2009-02-06 08:08:28 51°13.741 2°55.721 328.2 4.5 326 13.8
2009-02-06 08:08:33 51°13.747 2°55.715 328.1 5 326 13.5
2009-02-06 08:08:38 51°13.753 2°55.709 328.2 5.4 328 13.4
2009-02-06 08:08:43 51°13.76 2°55.702 328.6 5.8 326 12.9
2009-02-06 08:08:48 51°13.767 2°55.695 328.4 6.1 328 12.7
2009-02-06 08:08:52 51°13.773 2°55.689 328.3 6.3 327 12.5
2009-02-06 08:08:58 51°13.782 2°55.679 328.3 6.7 329 12.5
2009-02-06 08:09:03 51°13.791 2°55.671 329.6 7.1 328 12.5
2009-02-06 08:09:08 51°13.8 2°55.663 329.8 7.4 330 12.5
2009-02-06 08:09:13 51°13.809 2°55.654 330 7.7 330 12.5
2009-02-06 08:09:18 51°13.818 2°55.645 330.5 7.9 331 12.5
2009-02-06 08:09:23 51°13.828 2°55.637 331.2 8.1 331 12.5
2009-02-06 08:09:27 51°13.836 2°55.63 332.4 8.3 333 12.4
2009-02-06 08:09:33 51°13.849 2°55.62 333 8.5 332 12.3
2009-02-06 08:09:38 51°13.86 2°55.611 333.4 8.6 334 12.3
2009-02-06 08:09:43 51°13.871 2°55.603 334.5 8.7 334 12.3
2009-02-06 08:09:47 51°13.879 2°55.596 334.9 8.8 335 12.3
2009-02-06 08:09:53 51°13.893 2°55.587 335.5 8.9 335 12.3
2009-02-06 08:09:58 51°13.904 2°55.578 335.8 9 335 12.3
2009-02-06 08:10:03 51°13.915 2°55.57 335.8 9 336 12.3
2009-02-06 08:10:08 51°13.927 2°55.561 336.1 9.1 335 12.4
2009-02-06 08:10:12 51°13.936 2°55.554 336 9.2 335 12.4
2009-02-06 08:10:18 51°13.95 2°55.545 335.8 9.2 336 12.4
2009-02-06 08:10:23 51°13.962 2°55.536 336.9 9.3 336 12.4
2009-02-06 08:10:28 51°13.974 2°55.527 337.4 9.4 335 12.5
2009-02-06 08:10:33 51°13.986 2°55.519 337 9.4 336 12.5
2009-02-06 08:10:38 51°13.998 2°55.511 337.1 9.4 336 12.5
2009-02-06 08:10:43 51°14.01 2°55.502 337.6 9.5 336 12.5
2009-02-06 08:10:48 51°14.022 2°55.494 337.6 9.5 336 12.5
2009-02-06 08:10:52 51°14.032 2°55.486 337.3 9.5 335 12.5
2009-02-06 08:10:58 51°14.046 2°55.476 336.8 9.5 335 12.5
2009-02-06 08:11:03 51°14.058 2°55.467 336.8 9.5 336 12.5
2009-02-06 08:11:08 51°14.07 2°55.458 336.9 9.6 335 12.5
2009-02-06 08:11:13 51°14.082 2°55.449 336.3 9.6 334 12.5
2009-02-06 08:11:18 51°14.094 2°55.44 336.4 9.6 335 12.5
2009-02-06 08:11:23 51°14.106 2°55.431 336.8 9.6 333 12.5
2009-02-06 08:11:28 51°14.118 2°55.421 335.3 9.6 333 12.5
2009-02-06 08:11:33 51°14.13 2°55.411 334.4 9.7 332 12.5
2009-02-06 08:11:38 51°14.142 2°55.401 333.9 9.6 331 12.5
2009-02-06 08:11:43 51°14.153 2°55.391 333.1 9.6 331 12.5
2009-02-06 08:11:47 51°14.162 2°55.382 332 9.6 328 12.5
2009-02-06 08:11:53 51°14.176 2°55.369 330.7 9.6 329 12.5
2009-02-06 08:11:58 51°14.187 2°55.357 330.2 9.5 326 12.5
2009-02-06 08:12:03 51°14.197 2°55.344 328.3 9.6 324 12.5
2009-02-06 08:12:08 51°14.208 2°55.332 326.2 9.6 323 12.5
2009-02-06 08:12:13 51°14.219 2°55.319 324.9 9.5 322 12.6
2009-02-06 08:12:18 51°14.229 2°55.305 323.3 9.5 319 12.6
2009-02-06 08:12:23 51°14.238 2°55.291 321.1 9.5 318 12.6
2009-02-06 08:12:28 51°14.248 2°55.277 320.1 9.5 317 12.5
2009-02-06 08:12:33 51°14.257 2°55.262 318.7 9.6 315 12.6
2009-02-06 08:12:38 51°14.267 2°55.247 316.9 9.7 315 12.6
2009-02-06 08:12:43 51°14.276 2°55.232 315.8 9.7 314 12.6
2009-02-06 08:12:48 51°14.285 2°55.216 315.1 9.7 312 12.6
2009-02-06 08:12:52 51°14.292 2°55.203 313.9 9.9 312 12.5
2009-02-06 08:12:58 51°14.304 2°55.183 313.2 10 313 12.6
2009-02-06 08:13:03 51°14.313 2°55.167 313.5 10 312 12.6
2009-02-06 08:13:08 51°14.322 2°55.15 313.5 10.1 312 12.7
2009-02-06 08:13:12 51°14.329 2°55.136 312.9 10.2 310 12.7
2009-02-06 08:13:18 51°14.34 2°55.115 311.6 10.4 309 12.6
2009-02-06 08:13:23 51°14.349 2°55.096 310.2 10.4 308 12.7
2009-02-06 08:13:28 51°14.357 2°55.078 308.8 10.5 307 12.6
2009-02-06 08:13:33 51°14.366 2°55.059 308 10.5 308 12.7
2009-02-06 08:13:38 51°14.376 2°55.041 308 10.6 309 12.7
2009-02-06 08:13:43 51°14.385 2°55.023 308.2 10.7 311 12.8
2009-02-06 08:13:48 51°14.395 2°55.006 308.4 10.7 312 12.9
2009-02-06 08:13:53 51°14.405 2°54.989 308.4 10.7 312 12.9
2009-02-06 08:13:58 51°14.415 2°54.971 307.8 10.6 310 12.9
2009-02-06 08:14:03 51°14.424 2°54.952 306 10.6 308 12.9
2009-02-06 08:14:07 51°14.43 2°54.936 303.5 10.6 306 12.9
2009-02-06 08:14:13 51°14.441 2°54.914 301.8 10.7 308 13
2009-02-06 08:14:18 51°14.451 2°54.895 302.7 10.8 307 13.2
2009-02-06 08:14:23 51°14.459 2°54.876 302.5 10.8 307 13.2
2009-02-06 08:14:28 51°14.468 2°54.857 302.1 10.8 307 13.2
2009-02-06 08:14:32 51°14.475 2°54.842 302.3 10.9 306 13.2
2009-02-06 08:14:38 51°14.486 2°54.818 301.5 10.8 305 13.1
2009-02-06 08:14:43 51°14.494 2°54.798 300.5 10.9 305 13.2
2009-02-06 08:14:48 51°14.503 2°54.779 300.6 10.9 305 13.1
2009-02-06 08:14:52 51°14.51 2°54.763 300.7 11 304 13.1
2009-02-06 08:14:58 51°14.52 2°54.738 299.7 11 302 13.2
2009-02-06 08:15:03 51°14.528 2°54.717 298.1 11 302 13
2009-02-06 08:15:08 51°14.535 2°54.696 297.3 11 300 13
2009-02-06 08:15:12 51°14.541 2°54.679 296.2 11 301 12.9
2009-02-06 08:15:18 51°14.55 2°54.654 295.8 11.1 300 12.9
2009-02-06 08:15:23 51°14.558 2°54.633 295.7 11.2 301 12.8
2009-02-06 08:15:28 51°14.566 2°54.612 296.4 11.2 300 12.9
2009-02-06 08:15:33 51°14.574 2°54.59 296.4 11.2 301 12.8
2009-02-06 08:15:38 51°14.583 2°54.569 296.3 11.3 301 12.8
2009-02-06 08:15:43 51°14.591 2°54.547 296.5 11.4 301 12.7
2009-02-06 08:15:48 51°14.598 2°54.525 296.1 11.5 299 12.8
2009-02-06 08:15:53 51°14.607 2°54.503 295.4 11.6 300 12.9
2009-02-06 08:15:58 51°14.615 2°54.481 295.5 11.6 301 12.8
2009-02-06 08:16:03 51°14.623 2°54.459 296 11.7 301 12.8
2009-02-06 08:16:07 51°14.63 2°54.441 296.4 11.7 301 12.8
2009-02-06 08:16:13 51°14.64 2°54.415 296.7 11.7 301 12.8
2009-02-06 08:16:18 51°14.648 2°54.393 296.5 11.7 301 12.9
2009-02-06 08:16:23 51°14.657 2°54.371 296.4 11.7 302 12.9
2009-02-06 08:16:28 51°14.665 2°54.349 297 11.7 301 12.8
2009-02-06 08:16:33 51°14.674 2°54.327 297.1 11.8 301 12.8
2009-02-06 08:16:38 51°14.682 2°54.304 297 11.8 301 12.9
2009-02-06 08:16:43 51°14.691 2°54.282 296.6 11.8 301 12.8
2009-02-06 08:16:48 51°14.699 2°54.26 296.8 11.8 301 12.8
2009-02-06 08:16:52 51°14.706 2°54.242 296.9 11.8 301 13.1
2009-02-06 08:16:58 51°14.715 2°54.215 296.8 11.7 299 12.8
2009-02-06 08:17:03 51°14.724 2°54.193 295.7 11.7 299 12.8
2009-02-06 08:17:08 51°14.731 2°54.17 294.9 11.7 298 12.8
2009-02-06 08:17:12 51°14.738 2°54.152 294.5 11.7 300 12.7
2009-02-06 08:17:18 51°14.747 2°54.125 294.6 11.8 300 12.7
2009-02-06 08:17:23 51°14.755 2°54.102 295.6 11.7 299 12.5
2009-02-06 08:17:28 51°14.763 2°54.08 295.4 11.7 298 12.6
2009-02-06 08:17:33 51°14.771 2°54.057 294.5 11.7 299 12.3
2009-02-06 08:17:38 51°14.778 2°54.034 294.2 11.7 298 12.3
2009-02-06 08:17:43 51°14.786 2°54.011 293.7 11.6 298 12.2
2009-02-06 08:17:48 51°14.793 2°53.989 293.5 11.6 297 12.2
2009-02-06 08:17:53 51°14.801 2°53.966 293.3 11.6 298 12.1
2009-02-06 08:17:58 51°14.808 2°53.943 293.4 11.6 298 12.1
2009-02-06 08:18:03 51°14.816 2°53.921 293.4 11.6 299 12.1
2009-02-06 08:18:08 51°14.824 2°53.898 293.8 11.7 298 12
2009-02-06 08:18:13 51°14.831 2°53.875 293.9 11.8 298 12
2009-02-06 08:18:18 51°14.839 2°53.852 294.1 11.7 299 12
2009-02-06 08:18:23 51°14.847 2°53.83 294.9 11.7 300 12.1
2009-02-06 08:18:28 51°14.856 2°53.807 295.7 11.8 301 12.2
2009-02-06 08:18:33 51°14.865 2°53.785 296.4 11.8 301 12.3
2009-02-06 08:18:38 51°14.873 2°53.763 296.6 11.8 301 12.2
2009-02-06 08:18:43 51°14.882 2°53.741 297.1 11.8 302 12.2
2009-02-06 08:18:48 51°14.89 2°53.718 297.6 11.8 302 12.2
2009-02-06 08:18:52 51°14.897 2°53.701 298 11.8 302 12.3
2009-02-06 08:18:58 51°14.907 2°53.674 298.1 11.8 302 12.2
2009-02-06 08:19:03 51°14.916 2°53.652 297.9 11.8 301 12.3
2009-02-06 08:19:07 51°14.923 2°53.634 297.7 11.8 302 12.1
2009-02-06 08:19:12 51°14.932 2°53.612 297.8 11.8 301 12.2
2009-02-06 08:19:18 51°14.942 2°53.585 297.4 11.8 301 12.2
2009-02-06 08:19:23 51°14.95 2°53.563 297.1 11.8 301 12.5
2009-02-06 08:19:28 51°14.959 2°53.54 297.1 11.8 301 12.2
2009-02-06 08:19:32 51°14.965 2°53.522 297.1 11.8 301 12.1
2009-02-06 08:19:38 51°14.976 2°53.496 297.4 11.8 301 12.1
2009-02-06 08:19:43 51°14.984 2°53.473 297.6 11.8 300 12.2
2009-02-06 08:19:48 51°14.993 2°53.451 297.1 11.8 302 12.4
2009-02-06 08:19:53 51°15.001 2°53.429 297.1 11.8 300 12.4
2009-02-06 08:19:58 51°15.009 2°53.406 297 11.8 300 12.4
2009-02-06 08:20:03 51°15.018 2°53.384 296.7 11.8 301 12.3
2009-02-06 08:20:08 51°15.026 2°53.361 297.1 11.8 300 12.4
2009-02-06 08:20:13 51°15.034 2°53.339 297.2 11.7 301 12.4
2009-02-06 08:20:18 51°15.042 2°53.316 297.2 11.7 300 12.4
2009-02-06 08:20:23 51°15.051 2°53.294 296.9 11.8 301 12.4
2009-02-06 08:20:28 51°15.059 2°53.271 296.9 11.8 300 12.5
2009-02-06 08:20:33 51°15.067 2°53.249 296.6 11.8 300 12.5
2009-02-06 08:20:38 51°15.075 2°53.226 296.6 11.7 300 12.5
2009-02-06 08:20:43 51°15.084 2°53.204 296.6 11.7 300 12.6
2009-02-06 08:20:48 51°15.092 2°53.181 296.8 11.8 301 12.6
2009-02-06 08:20:53 51°15.1 2°53.159 297.2 11.8 300 12.6
2009-02-06 08:20:58 51°15.108 2°53.136 296.9 11.8 298 12.6
2009-02-06 08:21:03 51°15.116 2°53.113 295.7 11.7 298 12.8
2009-02-06 08:21:07 51°15.121 2°53.095 295.1 11.8 297 12.6
2009-02-06 08:21:12 51°15.129 2°53.072 294.2 11.8 298 12.6
2009-02-06 08:21:18 51°15.138 2°53.045 293.8 11.7 297 12.7
2009-02-06 08:21:23 51°15.146 2°53.022 293.6 11.7 298 12.8
2009-02-06 08:21:28 51°15.154 2°52.999 294.3 11.8 299 12.7
2009-02-06 08:21:32 51°15.16 2°52.981 295.3 11.8 299 12.8
2009-02-06 08:21:38 51°15.17 2°52.954 295.7 11.8 301 12.9
2009-02-06 08:21:43 51°15.178 2°52.931 296.4 11.8 300 13
2009-02-06 08:21:48 51°15.186 2°52.909 296.8 11.8 300 13
2009-02-06 08:21:53 51°15.195 2°52.886 296.5 11.8 300 13.2
2009-02-06 08:21:58 51°15.203 2°52.863 296.5 11.8 301 13.1
2009-02-06 08:22:03 51°15.211 2°52.841 297.1 11.8 299 13.1
2009-02-06 08:22:08 51°15.219 2°52.818 296.5 11.8 299 13.2
2009-02-06 08:22:13 51°15.227 2°52.795 295.7 11.8 298 13.3
2009-02-06 08:22:18 51°15.234 2°52.772 295 11.8 298 13.3
2009-02-06 08:22:23 51°15.242 2°52.749 294.6 11.8 298 13.4
2009-02-06 08:22:28 51°15.249 2°52.726 294.2 11.8 298 13.2
2009-02-06 08:22:33 51°15.257 2°52.703 294 11.8 298 13.3
2009-02-06 08:22:38 51°15.264 2°52.68 294.1 11.8 297 13.3
2009-02-06 08:22:43 51°15.272 2°52.656 293.8 11.8 298 13.3
2009-02-06 08:22:48 51°15.28 2°52.634 294.1 11.8 299 13.3
2009-02-06 08:22:53 51°15.288 2°52.611 294.9 11.8 299 13.4
2009-02-06 08:22:58 51°15.296 2°52.588 295.3 11.9 299 13.4
2009-02-06 08:23:03 51°15.303 2°52.565 295.2 11.8 298 13.4
2009-02-06 08:23:07 51°15.31 2°52.546 294.8 11.8 299 13.4
2009-02-06 08:23:13 51°15.319 2°52.519 294.8 11.8 298 13.5
2009-02-06 08:23:18 51°15.327 2°52.496 294.6 11.8 298 13.6
2009-02-06 08:23:23 51°15.335 2°52.473 294.5 11.8 298 13.6
2009-02-06 08:23:27 51°15.341 2°52.454 294.4 11.9 300 13.6
2009-02-06 08:23:32 51°15.349 2°52.432 295.4 11.9 300 13.7
2009-02-06 08:23:38 51°15.359 2°52.404 296.2 11.9 300 13.7
2009-02-06 08:23:43 51°15.368 2°52.382 296.7 11.9 301 13.7
2009-02-06 08:23:48 51°15.376 2°52.359 297.2 11.9 301 13.8
2009-02-06 08:23:52 51°15.383 2°52.342 297.5 11.9 302 13.8
2009-02-06 08:23:58 51°15.394 2°52.315 298.1 11.9 302 13.9
2009-02-06 08:24:03 51°15.402 2°52.292 298.1 11.9 302 13.9
2009-02-06 08:24:08 51°15.411 2°52.27 298.5 11.9 301 13.9
2009-02-06 08:24:13 51°15.42 2°52.247 298.1 11.9 302 14
2009-02-06 08:24:18 51°15.428 2°52.225 297.8 11.9 302 14
2009-02-06 08:24:23 51°15.437 2°52.202 298.5 11.9 301 14
2009-02-06 08:24:28 51°15.446 2°52.18 298.4 11.9 301 14.1
2009-02-06 08:24:33 51°15.454 2°52.158 298 11.9 301 14.1
2009-02-06 08:24:38 51°15.463 2°52.135 297.8 11.9 301 14.2
2009-02-06 08:24:43 51°15.471 2°52.113 297.5 11.9 299 14.2
2009-02-06 08:24:48 51°15.479 2°52.089 296.7 11.8 299 14.3
2009-02-06 08:24:53 51°15.487 2°52.067 295.8 11.8 299 14.4
2009-02-06 08:24:58 51°15.494 2°52.044 295.3 11.8 298 14.4
2009-02-06 08:25:03 51°15.502 2°52.02 295 11.8 298 14.5
2009-02-06 08:25:08 51°15.51 2°51.998 294.7 11.8 298 14.5
2009-02-06 08:25:13 51°15.517 2°51.974 294.4 11.8 297 14.6
2009-02-06 08:25:18 51°15.525 2°51.951 294.2 11.8 298 14.5
2009-02-06 08:25:23 51°15.533 2°51.928 294 11.8 298 14.5
2009-02-06 08:25:27 51°15.539 2°51.91 294.5 11.9 300 14.6
2009-02-06 08:25:33 51°15.549 2°51.882 295.7 11.9 299 14.6
2009-02-06 08:25:38 51°15.558 2°51.86 295.9 11.9 301 14.6
2009-02-06 08:25:43 51°15.566 2°51.837 296.7 11.9 300 14.8
2009-02-06 08:25:48 51°15.574 2°51.815 297 11.9 301 14.8
2009-02-06 08:25:52 51°15.581 2°51.796 297.5 11.9 301 14.8
2009-02-06 08:25:58 51°15.591 2°51.769 297.6 11.9 301 14.8
2009-02-06 08:26:03 51°15.599 2°51.746 297.2 11.9 298 14.8
2009-02-06 08:26:08 51°15.607 2°51.723 296.2 11.9 300 14.9
2009-02-06 08:26:13 51°15.615 2°51.701 295.9 11.8 298 14.9
2009-02-06 08:26:18 51°15.623 2°51.678 295.3 11.8 299 15
2009-02-06 08:26:23 51°15.631 2°51.654 294.9 11.8 298 15
2009-02-06 08:26:28 51°15.638 2°51.631 294.8 11.8 298 15
2009-02-06 08:26:33 51°15.646 2°51.608 294.5 11.8 297 15
2009-02-06 08:26:38 51°15.654 2°51.585 294 11.8 298 15
2009-02-06 08:26:43 51°15.661 2°51.562 294.1 11.8 298 15.1
2009-02-06 08:26:48 51°15.669 2°51.539 294.3 11.9 299 15.1
2009-02-06 08:26:52 51°15.675 2°51.52 294.7 11.8 298 15.1
2009-02-06 08:26:58 51°15.684 2°51.492 294.6 11.8 298 15.1
2009-02-06 08:27:03 51°15.692 2°51.469 294.6 11.9 298 15.2
2009-02-06 08:27:08 51°15.7 2°51.446 294.7 11.9 298 15.2
2009-02-06 08:27:13 51°15.708 2°51.423 294.8 11.9 299 15.3
2009-02-06 08:27:18 51°15.716 2°51.4 294.8 11.8 298 15.3
2009-02-06 08:27:23 51°15.724 2°51.377 294.8 11.8 298 15.3
2009-02-06 08:27:28 51°15.731 2°51.354 294.7 11.8 298 15.3
2009-02-06 08:27:33 51°15.739 2°51.331 294.7 11.9 298 15.3
2009-02-06 08:27:38 51°15.746 2°51.307 294.7 11.8 296 15.3
2009-02-06 08:27:43 51°15.754 2°51.284 293.4 11.8 297 15.3
2009-02-06 08:27:47 51°15.76 2°51.265 293.2 11.9 297 15.3
2009-02-06 08:27:53 51°15.769 2°51.237 293.8 11.8 297 15.3
2009-02-06 08:27:58 51°15.777 2°51.214 294.1 11.8 298 15.4
2009-02-06 08:28:03 51°15.784 2°51.191 294.2 11.9 297 15.4
2009-02-06 08:28:08 51°15.791 2°51.167 293.8 11.9 296 15.4
2009-02-06 08:28:12 51°15.797 2°51.148 293 11.8 295 15.3
2009-02-06 08:28:18 51°15.805 2°51.12 292.2 11.8 295 15.3
2009-02-06 08:28:23 51°15.812 2°51.096 291.9 11.8 295 15.4
2009-02-06 08:28:28 51°15.819 2°51.072 291.2 11.9 295 15.4
2009-02-06 08:28:33 51°15.825 2°51.048 290.8 11.9 294 15.4
2009-02-06 08:28:38 51°15.832 2°51.024 290.5 11.9 294 15.4
2009-02-06 08:28:43 51°15.839 2°51.001 290.6 11.8 293 15.4
2009-02-06 08:28:48 51°15.846 2°50.977 290.5 11.8 294 15.4
2009-02-06 08:28:52 51°15.851 2°50.958 290.6 11.8 294 15.4
2009-02-06 08:28:58 51°15.859 2°50.929 290.7 11.8 294 15.4
2009-02-06 08:29:03 51°15.865 2°50.905 290.7 11.8 293 15.4
2009-02-06 08:29:08 51°15.872 2°50.881 290.5 11.9 294 15.5
2009-02-06 08:29:13 51°15.879 2°50.857 290.4 11.9 294 15.4
2009-02-06 08:29:18 51°15.885 2°50.833 290.4 11.8 293 15.4
2009-02-06 08:29:23 51°15.892 2°50.809 290.4 11.8 294 15.5
2009-02-06 08:29:28 51°15.898 2°50.785 290.3 11.8 293 15.5
2009-02-06 08:29:33 51°15.905 2°50.762 290.1 11.8 293 15.4
2009-02-06 08:29:38 51°15.911 2°50.738 290.1 11.7 293 15.4
2009-02-06 08:29:43 51°15.918 2°50.714 290.4 11.7 294 15.5
2009-02-06 08:29:47 51°15.923 2°50.695 290.5 11.7 292 15.5
2009-02-06 08:29:53 51°15.93 2°50.666 289.5 11.6 292 15.4
2009-02-06 08:29:58 51°15.936 2°50.642 289 11.6 291 15.4
2009-02-06 08:30:03 51°15.942 2°50.618 288.4 11.6 291 15.2
2009-02-06 08:30:08 51°15.947 2°50.594 287.8 11.6 291 15.1
2009-02-06 08:30:13 51°15.953 2°50.57 287.3 11.6 290 14.9
2009-02-06 08:30:18 51°15.958 2°50.546 287 11.6 291 14.6
2009-02-06 08:30:23 51°15.965 2°50.523 287.7 11.6 292 14.4
2009-02-06 08:30:28 51°15.971 2°50.499 288.4 11.6 293 14.2
2009-02-06 08:30:33 51°15.977 2°50.475 289.1 11.6 292 13.9
2009-02-06 08:30:38 51°15.983 2°50.452 289.7 11.5 293 13.6
2009-02-06 08:30:43 51°15.989 2°50.428 289.9 11.5 291 13.4
2009-02-06 08:30:48 51°15.995 2°50.405 289.6 11.5 292 13.2
2009-02-06 08:30:52 51°15.999 2°50.386 288.8 11.4 290 13.1
2009-02-06 08:30:58 51°16.006 2°50.357 288 11.4 292 12.9
2009-02-06 08:31:03 51°16.011 2°50.333 287.7 11.4 289 12.8
2009-02-06 08:31:08 51°16.017 2°50.309 287.6 11.4 290 12.7
2009-02-06 08:31:12 51°16.021 2°50.29 287 11.4 287 12.7
2009-02-06 08:31:18 51°16.027 2°50.262 286.6 11.4 289 12.6
2009-02-06 08:31:23 51°16.03 2°50.237 286.4 11.4 283 12.6
2009-02-06 08:31:28 51°16.034 2°50.213 283.9 11.4 284 12.6
2009-02-06 08:31:33 51°16.038 2°50.188 282.3 11.4 283 12.6
2009-02-06 08:31:38 51°16.041 2°50.163 281.5 11.4 283 12.5
2009-02-06 08:31:43 51°16.045 2°50.139 280.9 11.5 282 12.6
2009-02-06 08:31:48 51°16.048 2°50.114 280.6 11.4 282 12.6
2009-02-06 08:31:53 51°16.051 2°50.089 280.4 11.5 283 12.7
2009-02-06 08:31:58 51°16.054 2°50.064 280.2 11.5 280 12.8
2009-02-06 08:32:03 51°16.058 2°50.04 279.9 11.4 282 12.9
2009-02-06 08:32:07 51°16.06 2°50.019 279.9 11.4 279 12.9
2009-02-06 08:32:13 51°16.061 2°49.989 277.8 11.4 275 12.9
2009-02-06 08:32:18 51°16.063 2°49.964 275.1 11.4 275 13
2009-02-06 08:32:23 51°16.063 2°49.939 273.3 11.4 272 13
2009-02-06 08:32:28 51°16.064 2°49.914 271.3 11.4 272 13.1
2009-02-06 08:32:33 51°16.064 2°49.889 270.7 11.5 272 13.1
2009-02-06 08:32:38 51°16.064 2°49.863 270.1 11.5 271 13.2
2009-02-06 08:32:43 51°16.065 2°49.838 269.3 11.5 273 13.3
2009-02-06 08:32:48 51°16.066 2°49.812 270.7 11.5 273 13.3
2009-02-06 08:32:52 51°16.067 2°49.792 271.7 11.5 273 13.3
2009-02-06 08:32:58 51°16.068 2°49.762 272.1 11.5 275 13.3
2009-02-06 08:33:03 51°16.069 2°49.736 272.8 11.5 274 13.4
2009-02-06 08:33:08 51°16.07 2°49.711 272.6 11.5 273 13.4
2009-02-06 08:33:12 51°16.071 2°49.69 272.1 11.5 273 13.4
2009-02-06 08:33:18 51°16.072 2°49.66 271.7 11.6 273 13.5
2009-02-06 08:33:23 51°16.072 2°49.634 271.3 11.5 272 13.4
2009-02-06 08:33:28 51°16.073 2°49.609 270.9 11.5 272 13.5
2009-02-06 08:33:33 51°16.074 2°49.584 270.5 11.5 274 13.5
2009-02-06 08:33:38 51°16.075 2°49.558 271.8 11.5 273 13.6
2009-02-06 08:33:43 51°16.077 2°49.533 272.3 11.5 276 13.6
2009-02-06 08:33:48 51°16.078 2°49.508 273.4 11.5 275 13.7
2009-02-06 08:33:53 51°16.08 2°49.482 273.6 11.5 276 13.7
2009-02-06 08:33:58 51°16.082 2°49.457 274.5 11.6 277 13.9
2009-02-06 08:34:03 51°16.084 2°49.432 275 11.6 277 14
2009-02-06 08:34:08 51°16.086 2°49.406 275.2 11.5 277 14
2009-02-06 08:34:13 51°16.088 2°49.381 275.6 11.5 277 14
2009-02-06 08:34:18 51°16.09 2°49.356 275.8 11.6 278 14.2
2009-02-06 08:34:23 51°16.092 2°49.33 276 11.6 277 14.3
2009-02-06 08:34:28 51°16.094 2°49.305 276.1 11.6 278 14.4
2009-02-06 08:34:33 51°16.096 2°49.279 276.1 11.6 277 14.5
2009-02-06 08:34:38 51°16.098 2°49.254 276.1 11.6 277 14.5
2009-02-06 08:34:43 51°16.1 2°49.229 276 11.6 278 14.6
2009-02-06 08:34:48 51°16.103 2°49.203 276.1 11.6 279 14.6
2009-02-06 08:34:52 51°16.105 2°49.183 277.1 11.6 280 14.8
2009-02-06 08:34:58 51°16.108 2°49.152 277.9 11.7 280 14.8
2009-02-06 08:35:03 51°16.111 2°49.127 278.3 11.7 280 14.9
2009-02-06 08:35:08 51°16.114 2°49.102 278.9 11.7 281 15.1
2009-02-06 08:35:12 51°16.117 2°49.081 279.2 11.7 281 15.2
2009-02-06 08:35:18 51°16.12 2°49.051 279.3 11.7 280 15.2
2009-02-06 08:35:23 51°16.123 2°49.025 279 11.7 279 15.4
2009-02-06 08:35:28 51°16.126 2°49 278.1 11.7 280 15.6
2009-02-06 08:35:33 51°16.128 2°48.974 278 11.7 278 15.8
2009-02-06 08:35:38 51°16.131 2°48.949 277.3 11.7 279 16
2009-02-06 08:35:43 51°16.133 2°48.923 277 11.7 279 16.2
2009-02-06 08:35:48 51°16.135 2°48.898 277 11.6 278 16.4
2009-02-06 08:35:53 51°16.138 2°48.873 276.8 11.7 279 16.5
2009-02-06 08:35:58 51°16.14 2°48.847 276.8 11.6 278 16.6
2009-02-06 08:36:03 51°16.142 2°48.821 276.8 11.7 278 16.7
2009-02-06 08:36:08 51°16.144 2°48.796 276.1 11.7 277 16.8
2009-02-06 08:36:13 51°16.146 2°48.77 275.8 11.7 277 16.9
2009-02-06 08:36:18 51°16.148 2°48.745 275.5 11.6 277 17.1
2009-02-06 08:36:23 51°16.15 2°48.719 275.3 11.6 277 17.2
2009-02-06 08:36:28 51°16.152 2°48.693 275.1 11.6 277 17.3
2009-02-06 08:36:33 51°16.154 2°48.668 275.1 11.6 277 17.4
2009-02-06 08:36:38 51°16.156 2°48.642 275.1 11.6 277 17.4
2009-02-06 08:36:43 51°16.158 2°48.617 275 11.6 278 17.6
2009-02-06 08:36:48 51°16.16 2°48.591 275.3 11.6 276 17.7
2009-02-06 08:36:53 51°16.163 2°48.566 275.3 11.6 280 17.8
2009-02-06 08:36:58 51°16.165 2°48.541 275.9 11.6 278 17.8
2009-02-06 08:37:03 51°16.167 2°48.515 276 11.6 278 17.9
2009-02-06 08:37:07 51°16.168 2°48.495 275.7 11.6 275 17.9
2009-02-06 08:37:13 51°16.171 2°48.464 273.9 11.6 277 18
2009-02-06 08:37:18 51°16.172 2°48.439 273.8 11.6 276 18
2009-02-06 08:37:23 51°16.174 2°48.414 273.9 11.6 276 18
2009-02-06 08:37:28 51°16.176 2°48.388 273.9 11.5 275 18
2009-02-06 08:37:32 51°16.176 2°48.368 272.8 11.6 275 18.1
2009-02-06 08:37:38 51°16.179 2°48.337 272.4 11.6 275 18.1
2009-02-06 08:37:43 51°16.18 2°48.312 272.8 11.6 276 18
2009-02-06 08:37:48 51°16.182 2°48.286 273.2 11.6 277 18.1
2009-02-06 08:37:53 51°16.184 2°48.261 273.5 11.6 276 18
2009-02-06 08:37:58 51°16.186 2°48.235 273.9 11.6 277 18
2009-02-06 08:38:03 51°16.187 2°48.21 274.1 11.5 274 18.1
2009-02-06 08:38:08 51°16.189 2°48.184 273.5 11.6 276 18
2009-02-06 08:38:13 51°16.19 2°48.159 273.5 11.6 274 18.1
2009-02-06 08:38:18 51°16.192 2°48.133 273.5 11.5 276 18.1
2009-02-06 08:38:23 51°16.193 2°48.108 273.7 11.5 276 18.1
2009-02-06 08:38:28 51°16.195 2°48.083 273.7 11.5 275 18
2009-02-06 08:38:33 51°16.196 2°48.057 273.9 11.6 276 18
2009-02-06 08:38:38 51°16.198 2°48.032 273.9 11.5 276 18
2009-02-06 08:38:43 51°16.199 2°48.006 274 11.5 275 17.9
2009-02-06 08:38:48 51°16.201 2°47.981 273.9 11.6 276 17.9
2009-02-06 08:38:53 51°16.202 2°47.956 273.9 11.5 274 17.9
2009-02-06 08:38:58 51°16.204 2°47.93 273.9 11.5 275 17.9
2009-02-06 08:39:03 51°16.205 2°47.905 273.8 11.5 275 17.7
2009-02-06 08:39:07 51°16.206 2°47.885 273.6 11.6 275 17.6
2009-02-06 08:39:13 51°16.208 2°47.854 273.6 11.5 275 17.5
2009-02-06 08:39:18 51°16.21 2°47.829 273.9 11.5 276 17.4
2009-02-06 08:39:23 51°16.211 2°47.803 273.9 11.5 276 17.4
2009-02-06 08:39:27 51°16.212 2°47.783 273.9 11.6 275 17.3
2009-02-06 08:39:33 51°16.214 2°47.753 273.9 11.6 276 17.2
2009-02-06 08:39:38 51°16.216 2°47.727 274.3 11.5 275 17.4
2009-02-06 08:39:43 51°16.218 2°47.702 274 11.5 276 17.3
2009-02-06 08:39:48 51°16.219 2°47.677 273.9 11.5 276 17.4
2009-02-06 08:39:52 51°16.22 2°47.656 273.9 11.5 275 17.3
2009-02-06 08:39:58 51°16.222 2°47.626 273.6 11.5 276 17.2
2009-02-06 08:40:03 51°16.224 2°47.601 273.8 11.4 275 17.2
2009-02-06 08:40:08 51°16.225 2°47.576 273.8 11.4 276 17.1
2009-02-06 08:40:13 51°16.227 2°47.55 273.5 11.4 275 17.1
2009-02-06 08:40:18 51°16.228 2°47.526 273.5 11.4 276 16.9
2009-02-06 08:40:23 51°16.23 2°47.501 273.5 11.3 277 16.9
2009-02-06 08:40:28 51°16.232 2°47.476 273.9 11.3 276 16.7
2009-02-06 08:40:33 51°16.233 2°47.451 274.1 11.3 276 16.7
2009-02-06 08:40:38 51°16.235 2°47.426 273.9 11.3 275 16.6
2009-02-06 08:40:43 51°16.236 2°47.401 273.3 11.3 275 16.4
2009-02-06 08:40:48 51°16.238 2°47.376 273.2 11.3 276 16.3
2009-02-06 08:40:53 51°16.239 2°47.352 273.3 11.2 275 16.2
2009-02-06 08:40:58 51°16.241 2°47.327 273.2 11.3 275 16.2
2009-02-06 08:41:03 51°16.242 2°47.302 272.9 11.3 275 16.1
2009-02-06 08:41:08 51°16.243 2°47.277 273.2 11.3 275 15.9
2009-02-06 08:41:13 51°16.245 2°47.252 273.1 11.3 276 15.8
2009-02-06 08:41:18 51°16.247 2°47.227 273.3 11.3 276 15.8
2009-02-06 08:41:23 51°16.248 2°47.202 273.6 11.3 275 15.3
2009-02-06 08:41:27 51°16.249 2°47.182 273.2 11.3 275 14.7
2009-02-06 08:41:33 51°16.25 2°47.152 272.9 11.3 274 15
2009-02-06 08:41:38 51°16.251 2°47.127 272.6 11.3 274 15.5
2009-02-06 08:41:43 51°16.253 2°47.102 272.7 11.3 275 15.6
2009-02-06 08:41:48 51°16.254 2°47.077 273 11.4 275 15.6
2009-02-06 08:41:52 51°16.255 2°47.057 273.3 11.4 274 15.6
2009-02-06 08:41:58 51°16.256 2°47.027 273.2 11.3 273 15.6
2009-02-06 08:42:03 51°16.257 2°47.002 271.8 11.3 273 14.6
2009-02-06 08:42:08 51°16.257 2°46.977 271.6 11.3 272 13.9
2009-02-06 08:42:13 51°16.258 2°46.952 271 11.3 272 14.1
2009-02-06 08:42:18 51°16.259 2°46.927 270.4 11.3 273 14.3
2009-02-06 08:42:23 51°16.259 2°46.902 270.7 11.3 271 14.4
2009-02-06 08:42:28 51°16.259 2°46.877 270.3 11.3 272 14.5
2009-02-06 08:42:33 51°16.26 2°46.852 269.8 11.3 271 14.5
2009-02-06 08:42:38 51°16.26 2°46.827 269.9 11.3 272 14.5
2009-02-06 08:42:43 51°16.26 2°46.802 270.1 11.4 272 14.4
2009-02-06 08:42:48 51°16.261 2°46.777 270.2 11.4 272 14.3
2009-02-06 08:42:53 51°16.262 2°46.752 270.5 11.4 272 14.4
2009-02-06 08:42:58 51°16.263 2°46.727 270.7 11.3 273 14.2
2009-02-06 08:43:03 51°16.263 2°46.701 271 11.3 271 13.7
2009-02-06 08:43:08 51°16.264 2°46.676 270.7 11.4 274 13.4
2009-02-06 08:43:13 51°16.265 2°46.651 271.2 11.3 273 13.3
2009-02-06 08:43:18 51°16.266 2°46.626 271.7 11.4 275 13.2
2009-02-06 08:43:23 51°16.267 2°46.601 273 11.3 274 13.1
2009-02-06 08:43:27 51°16.268 2°46.581 273.4 11.4 275 12.9
2009-02-06 08:43:32 51°16.27 2°46.556 273.4 11.3 274 13
2009-02-06 08:43:37 51°16.271 2°46.531 273.2 11.3 274 12.8
2009-02-06 08:43:43 51°16.272 2°46.502 272.6 11.2 274 12.6
2009-02-06 08:43:47 51°16.272 2°46.482 272.4 11.3 274 12.5
2009-02-06 08:43:52 51°16.273 2°46.457 272 11.3 273 12.4
2009-02-06 08:43:57 51°16.274 2°46.431 271.8 11.3 273 12.5
2009-02-06 08:44:03 51°16.275 2°46.401 271.5 11.3 273 12.2
2009-02-06 08:44:07 51°16.276 2°46.382 271.5 11.3 273 12.3
2009-02-06 08:44:12 51°16.277 2°46.357 271.7 11.3 272 12.5
2009-02-06 08:44:18 51°16.278 2°46.326 271.6 11.3 274 12.6
2009-02-06 08:44:23 51°16.278 2°46.301 271.3 11.4 273 12.6
2009-02-06 08:44:27 51°16.279 2°46.281 271.8 11.4 275 12.4
2009-02-06 08:44:32 51°16.281 2°46.256 273 11.4 277 12.1
2009-02-06 08:44:38 51°16.283 2°46.226 274 11.4 275 12.1
2009-02-06 08:44:43 51°16.286 2°46.201 274.3 11.4 278 12.3
2009-02-06 08:44:47 51°16.287 2°46.181 275.1 11.4 276 12.6
2009-02-06 08:44:52 51°16.289 2°46.156 275.2 11.5 279 12.5
2009-02-06 08:44:57 51°16.291 2°46.13 275.6 11.5 277 12.4
2009-02-06 08:45:03 51°16.293 2°46.1 275.6 11.5 277 12.6
2009-02-06 08:45:07 51°16.295 2°46.08 275.3 11.4 276 12.7
2009-02-06 08:45:12 51°16.297 2°46.055 274.8 11.5 278 12.7
2009-02-06 08:45:17 51°16.299 2°46.03 275.3 11.5 277 12.6
2009-02-06 08:45:22 51°16.301 2°46.005 275.5 11.5 278 12.3
2009-02-06 08:45:27 51°16.304 2°45.98 275 11.4 279 12.2
2009-02-06 08:45:32 51°16.307 2°45.955 276.1 11.5 282 12.3
2009-02-06 08:45:37 51°16.31 2°45.93 277.8 11.5 280 12.4
2009-02-06 08:45:42 51°16.313 2°45.905 278.3 11.5 281 12.5
2009-02-06 08:45:47 51°16.316 2°45.88 278.3 11.5 280 12.6
2009-02-06 08:45:52 51°16.318 2°45.855 277.7 11.5 281 12.7
2009-02-06 08:45:57 51°16.321 2°45.83 277.5 11.5 280 12.7
2009-02-06 08:46:03 51°16.325 2°45.8 277.5 11.4 281 12.6
2009-02-06 08:46:07 51°16.327 2°45.78 277.9 11.4 280 12.9
2009-02-06 08:46:12 51°16.33 2°45.755 277.8 11.4 281 12.8
2009-02-06 08:46:17 51°16.333 2°45.731 277.8 11.4 280 12.8
2009-02-06 08:46:23 51°16.337 2°45.701 277.7 11.4 282 13
2009-02-06 08:46:27 51°16.338 2°45.681 277.8 11.4 279 13.1
2009-02-06 08:46:32 51°16.341 2°45.656 277.8 11.4 279 13.2
2009-02-06 08:46:38 51°16.344 2°45.626 277 11.5 280 13.2
2009-02-06 08:46:43 51°16.347 2°45.601 277.5 11.4 281 13.4
2009-02-06 08:46:47 51°16.35 2°45.581 278 11.4 281 13.3
2009-02-06 08:46:52 51°16.353 2°45.556 278 11.4 281 13.4
2009-02-06 08:46:58 51°16.357 2°45.527 278.3 11.4 282 13.4
2009-02-06 08:47:03 51°16.36 2°45.502 278.6 11.4 282 13.4
2009-02-06 08:47:07 51°16.362 2°45.482 278.8 11.5 281 13.3
2009-02-06 08:47:12 51°16.365 2°45.457 278.4 11.5 281 13.3
2009-02-06 08:47:17 51°16.369 2°45.432 278.4 11.5 281 13.4
2009-02-06 08:47:23 51°16.372 2°45.402 278.7 11.5 282 13.4
2009-02-06 08:47:27 51°16.375 2°45.382 279 11.5 281 13.4
2009-02-06 08:47:32 51°16.378 2°45.357 279 11.5 282 13.5
2009-02-06 08:47:37 51°16.381 2°45.332 278.9 11.6 282 13.5
2009-02-06 08:47:42 51°16.385 2°45.307 279.5 11.6 283 13.4
2009-02-06 08:47:47 51°16.389 2°45.282 280.2 11.6 283 13.3
2009-02-06 08:47:52 51°16.392 2°45.258 280.5 11.6 283 13.4
2009-02-06 08:47:57 51°16.395 2°45.233 280.2 11.5 282 13.5
2009-02-06 08:48:02 51°16.399 2°45.208 279.4 11.5 282 13.7
2009-02-06 08:48:07 51°16.402 2°45.183 279 11.5 281 13.6
2009-02-06 08:48:12 51°16.405 2°45.158 278.8 11.5 282 13.8
2009-02-06 08:48:17 51°16.408 2°45.132 278.6 11.5 281 13.9
2009-02-06 08:48:23 51°16.413 2°45.103 279 11.5 284 13.8
2009-02-06 08:48:27 51°16.415 2°45.083 280.1 11.5 282 13.8
2009-02-06 08:48:32 51°16.419 2°45.058 280.2 11.5 282 13.8
2009-02-06 08:48:37 51°16.422 2°45.033 279.9 11.5 281 13.9
2009-02-06 08:48:43 51°16.426 2°45.003 279.7 11.5 282 14
2009-02-06 08:48:47 51°16.428 2°44.983 279.1 11.5 281 13.7
2009-02-06 08:48:52 51°16.431 2°44.958 279 11.5 282 13.7
2009-02-06 08:48:58 51°16.435 2°44.928 279.2 11.4 281 13.6
2009-02-06 08:49:03 51°16.438 2°44.904 278.7 11.4 282 13.5
2009-02-06 08:49:07 51°16.44 2°44.884 278.7 11.4 281 13.3
2009-02-06 08:49:12 51°16.443 2°44.859 278.7 11.3 281 12.8
2009-02-06 08:49:18 51°16.447 2°44.83 278.9 11.3 282 12.9
2009-02-06 08:49:23 51°16.45 2°44.805 278.8 11.4 280 12.8
2009-02-06 08:49:27 51°16.452 2°44.785 278.4 11.4 282 13.1
2009-02-06 08:49:32 51°16.455 2°44.76 278.6 11.4 281 13
2009-02-06 08:49:37 51°16.458 2°44.736 278.5 11.4 281 13.4
2009-02-06 08:49:43 51°16.462 2°44.706 278.6 11.4 280 13.5
2009-02-06 08:49:47 51°16.464 2°44.686 278.6 11.5 282 14
2009-02-06 08:49:52 51°16.468 2°44.661 279.5 11.5 284 14.3
2009-02-06 08:49:57 51°16.472 2°44.636 280.3 11.5 283 14.3
2009-02-06 08:50:03 51°16.476 2°44.607 281.1 11.5 284 14.4
2009-02-06 08:50:07 51°16.479 2°44.587 281.2 11.5 284 14.5
2009-02-06 08:50:12 51°16.483 2°44.562 281.3 11.6 284 14.5
2009-02-06 08:50:17 51°16.487 2°44.537 281.7 11.6 284 14.5
2009-02-06 08:50:22 51°16.491 2°44.512 281.8 11.6 285 14.5
2009-02-06 08:50:27 51°16.495 2°44.487 281.9 11.6 284 14.6
2009-02-06 08:50:32 51°16.499 2°44.463 281.9 11.6 285 14.7
2009-02-06 08:50:37 51°16.503 2°44.438 282 11.6 284 14.7
2009-02-06 08:50:42 51°16.507 2°44.413 282 11.6 286 14.8
2009-02-06 08:50:47 51°16.512 2°44.388 282.9 11.6 287 14.9
2009-02-06 08:50:52 51°16.516 2°44.364 283.6 11.6 286 15.1
2009-02-06 08:50:57 51°16.521 2°44.339 284 11.6 287 15.3
2009-02-06 08:51:02 51°16.525 2°44.315 284 11.6 286 15.5
2009-02-06 08:51:07 51°16.531 2°44.29 284.1 11.7 290 15.7
2009-02-06 08:51:12 51°16.536 2°44.266 285.8 11.7 288 16
2009-02-06 08:51:17 51°16.542 2°44.242 286.3 11.7 291 16.2
2009-02-06 08:51:23 51°16.548 2°44.213 287.3 11.7 290 16.4
2009-02-06 08:51:27 51°16.553 2°44.193 288 11.7 292 16.5
2009-02-06 08:51:32 51°16.559 2°44.169 288.4 11.7 292 16.7
2009-02-06 08:51:37 51°16.566 2°44.145 289.2 11.7 293 16.8
2009-02-06 08:51:43 51°16.573 2°44.117 290 11.8 294 16.8
2009-02-06 08:51:47 51°16.579 2°44.098 290.8 11.8 295 16.9
2009-02-06 08:51:52 51°16.586 2°44.074 292 11.8 295 17
2009-02-06 08:51:57 51°16.593 2°44.051 292.5 11.8 296 17
2009-02-06 08:52:02 51°16.6 2°44.028 293.2 11.9 297 17.1
2009-02-06 08:52:07 51°16.607 2°44.004 294 11.9 296 17.1
2009-02-06 08:52:12 51°16.614 2°43.98 293.5 11.9 295 17.2
2009-02-06 08:52:17 51°16.621 2°43.956 292.9 11.9 296 17.2
2009-02-06 08:52:22 51°16.629 2°43.933 293.5 11.9 296 17.2
2009-02-06 08:52:27 51°16.636 2°43.909 293.6 11.9 297 17.3
2009-02-06 08:52:32 51°16.644 2°43.886 293.6 11.9 297 17.2
2009-02-06 08:52:37 51°16.651 2°43.862 294.2 12 298 17.2
2009-02-06 08:52:42 51°16.659 2°43.839 294.5 11.9 297 17.1
2009-02-06 08:52:47 51°16.666 2°43.815 294.4 11.9 298 17.2
2009-02-06 08:52:52 51°16.674 2°43.792 294.2 11.9 296 17.3
2009-02-06 08:52:57 51°16.681 2°43.768 294 11.9 297 17.5
2009-02-06 08:53:02 51°16.689 2°43.744 293.5 11.9 296 17.5
2009-02-06 08:53:07 51°16.695 2°43.721 292.8 11.8 294 17.3
2009-02-06 08:53:12 51°16.702 2°43.697 292 11.8 294 17.2
2009-02-06 08:53:17 51°16.709 2°43.673 290.9 11.8 294 17.1
2009-02-06 08:53:23 51°16.717 2°43.645 290.9 11.7 294 16.9
2009-02-06 08:53:27 51°16.722 2°43.626 290.6 11.7 293 16.4
2009-02-06 08:53:32 51°16.728 2°43.602 290.3 11.7 292 16.2
2009-02-06 08:53:37 51°16.734 2°43.578 290.1 11.7 293 16
2009-02-06 08:53:43 51°16.742 2°43.549 290.2 11.7 293 15.8
2009-02-06 08:53:47 51°16.747 2°43.53 290.1 11.7 294 15.7
2009-02-06 08:53:52 51°16.754 2°43.507 290.2 11.7 293 15.7
2009-02-06 08:53:57 51°16.76 2°43.483 290.3 11.6 293 15.9
2009-02-06 08:54:03 51°16.768 2°43.455 290.1 11.6 293 15.9
2009-02-06 08:54:07 51°16.773 2°43.436 290.3 11.6 293 15.8
2009-02-06 08:54:12 51°16.779 2°43.412 290 11.7 293 15.7
2009-02-06 08:54:17 51°16.785 2°43.388 289.9 11.6 293 15.6
2009-02-06 08:54:22 51°16.792 2°43.365 290.2 11.6 293 15.5
2009-02-06 08:54:27 51°16.798 2°43.341 290.2 11.6 293 15.9
2009-02-06 08:54:32 51°16.804 2°43.317 290 11.6 293 16
2009-02-06 08:54:37 51°16.81 2°43.294 289.7 11.6 292 15.8
2009-02-06 08:54:42 51°16.817 2°43.27 289.8 11.5 293 15.9
2009-02-06 08:54:47 51°16.823 2°43.246 290.1 11.6 292 15.9
2009-02-06 08:54:52 51°16.829 2°43.223 289.9 11.6 293 15.7
2009-02-06 08:54:57 51°16.835 2°43.199 290.5 11.6 292 15.6
2009-02-06 08:55:02 51°16.842 2°43.176 290.2 11.6 294 15.2
2009-02-06 08:55:07 51°16.848 2°43.152 290.5 11.6 293 14.5
2009-02-06 08:55:12 51°16.854 2°43.129 290.3 11.6 293 13.6
2009-02-06 08:55:17 51°16.861 2°43.105 290.3 11.6 294 14.7
2009-02-06 08:55:22 51°16.867 2°43.082 291 11.5 293 15.4
2009-02-06 08:55:27 51°16.873 2°43.058 290.6 11.5 293 15.8
2009-02-06 08:55:32 51°16.88 2°43.035 290.5 11.6 294 15.6
2009-02-06 08:55:37 51°16.886 2°43.011 290.6 11.6 294 15.4
2009-02-06 08:55:43 51°16.894 2°42.984 291.6 11.6 295 15.1
2009-02-06 08:55:47 51°16.9 2°42.965 292 11.6 294 15.4
2009-02-06 08:55:52 51°16.907 2°42.942 292 11.6 296 15
2009-02-06 08:55:57 51°16.913 2°42.919 292.4 11.6 295 14.4
2009-02-06 08:56:02 51°16.921 2°42.896 292.9 11.6 297 13.9
2009-02-06 08:56:07 51°16.928 2°42.873 293.6 11.6 296 13.4
2009-02-06 08:56:12 51°16.935 2°42.85 293.6 11.5 297 12.8
2009-02-06 08:56:17 51°16.942 2°42.828 293.8 11.5 297 12.3
2009-02-06 08:56:23 51°16.951 2°42.8 294.1 11.5 296 11.9
2009-02-06 08:56:27 51°16.957 2°42.783 293.5 11.5 297 11.7
2009-02-06 08:56:32 51°16.964 2°42.76 293.9 11.4 296 13.1
2009-02-06 08:56:37 51°16.971 2°42.737 293.9 11.5 295 13.3
2009-02-06 08:56:42 51°16.978 2°42.714 292.8 11.5 298 12.8
2009-02-06 08:56:47 51°16.985 2°42.692 293.5 11.4 296 12.3
2009-02-06 08:56:52 51°16.992 2°42.669 293.1 11.5 297 12.1
2009-02-06 08:56:57 51°16.999 2°42.646 293.5 11.5 297 11.9
2009-02-06 08:57:02 51°17.006 2°42.624 293.9 11.4 297 11.6
2009-02-06 08:57:07 51°17.013 2°42.601 293.5 11.5 296 11.9
2009-02-06 08:57:12 51°17.02 2°42.578 293.4 11.4 297 11.2
2009-02-06 08:57:17 51°17.027 2°42.556 293.5 11.4 295 12
2009-02-06 08:57:22 51°17.034 2°42.533 292.6 11.4 296 12.2
2009-02-06 08:57:27 51°17.041 2°42.51 292.1 11.5 296 12.6
2009-02-06 08:57:32 51°17.048 2°42.487 292.6 11.5 296 12.3
2009-02-06 08:57:37 51°17.055 2°42.465 292.7 11.5 297 12.4
2009-02-06 08:57:43 51°17.064 2°42.437 292.8 11.5 296 12.4
2009-02-06 08:57:47 51°17.069 2°42.419 292.9 11.5 296 12.2
2009-02-06 08:57:52 51°17.077 2°42.396 292.9 11.5 297 12.6
2009-02-06 08:57:57 51°17.083 2°42.373 292.8 11.5 295 13.4
2009-02-06 08:58:02 51°17.091 2°42.35 291.8 11.6 296 14.2
2009-02-06 08:58:07 51°17.097 2°42.327 291.3 11.5 294 15
2009-02-06 08:58:12 51°17.104 2°42.304 290.7 11.6 295 16.1
2009-02-06 08:58:17 51°17.11 2°42.28 290.6 11.7 296 17.7
2009-02-06 08:58:23 51°17.119 2°42.252 291.5 11.7 295 19.5
2009-02-06 08:58:27 51°17.124 2°42.233 291.6 11.8 296 20.7
2009-02-06 08:58:32 51°17.132 2°42.21 291.6 11.8 296 21.5
2009-02-06 08:58:37 51°17.139 2°42.187 291.8 11.8 297 22.1
2009-02-06 08:58:43 51°17.148 2°42.159 292.1 11.9 297 22.6
2009-02-06 08:58:47 51°17.154 2°42.14 292.4 11.9 297 23
2009-02-06 08:58:52 51°17.161 2°42.116 292.5 11.9 296 23.3
2009-02-06 08:58:57 51°17.169 2°42.093 292.5 11.9 296 23.7
2009-02-06 08:59:02 51°17.176 2°42.069 292 11.9 296 23.9
2009-02-06 08:59:07 51°17.183 2°42.046 292 11.9 296 24.3
2009-02-06 08:59:12 51°17.19 2°42.022 292 11.9 296 24.5
2009-02-06 08:59:17 51°17.198 2°41.999 292.1 11.9 297 24.8
2009-02-06 08:59:22 51°17.205 2°41.975 292.2 11.9 296 25.1
2009-02-06 08:59:27 51°17.213 2°41.951 292 11.9 296 25.2
2009-02-06 08:59:32 51°17.22 2°41.927 292 11.9 296 25.5
2009-02-06 08:59:37 51°17.227 2°41.904 291.9 11.9 296 25.6
2009-02-06 08:59:42 51°17.234 2°41.88 292 11.9 296 25.8
2009-02-06 08:59:47 51°17.242 2°41.856 291.7 11.9 296 25.8
2009-02-06 08:59:52 51°17.249 2°41.833 291.8 11.9 296 25.9
2009-02-06 08:59:57 51°17.256 2°41.809 292.1 11.8 293 25.9
2009-02-06 09:00:02 51°17.263 2°41.785 290.9 11.9 295 26.2
2009-02-06 09:00:07 51°17.269 2°41.761 290.3 11.8 294 26.4
2009-02-06 09:00:12 51°17.276 2°41.737 289.8 11.8 293 26.6
2009-02-06 09:00:17 51°17.282 2°41.713 289 11.7 292 26.6
2009-02-06 09:00:22 51°17.288 2°41.69 288.5 11.7 292 26.5
2009-02-06 09:00:27 51°17.293 2°41.665 287 11.7 289 26.4
2009-02-06 09:00:32 51°17.299 2°41.64 285.5 11.7 289 26.3
2009-02-06 09:00:37 51°17.303 2°41.616 284.4 11.6 287 26.4
2009-02-06 09:00:43 51°17.309 2°41.586 283.3 11.7 288 26.5
2009-02-06 09:00:47 51°17.312 2°41.566 282.7 11.7 285 26.4
2009-02-06 09:00:52 51°17.317 2°41.541 282.2 11.6 286 26.5
2009-02-06 09:00:57 51°17.321 2°41.517 281.9 11.6 285 26.5
2009-02-06 09:01:03 51°17.325 2°41.487 280.8 11.5 281 26.6
2009-02-06 09:01:07 51°17.328 2°41.467 278.8 11.6 283 26.5
2009-02-06 09:01:12 51°17.331 2°41.442 278.2 11.5 278 26.6
2009-02-06 09:01:17 51°17.334 2°41.417 276.2 11.6 282 26.5
2009-02-06 09:01:22 51°17.336 2°41.391 276.1 11.5 278 26.5
2009-02-06 09:01:27 51°17.339 2°41.366 275.1 11.5 280 26.5
2009-02-06 09:01:32 51°17.341 2°41.341 274.9 11.5 277 26.5
2009-02-06 09:01:37 51°17.344 2°41.316 274.3 11.6 280 26.5
2009-02-06 09:01:42 51°17.346 2°41.29 274.6 11.5 278 26.5
2009-02-06 09:01:47 51°17.349 2°41.265 274.6 11.6 279 26.3
2009-02-06 09:01:52 51°17.351 2°41.24 274.6 11.6 278 26.3
2009-02-06 09:01:57 51°17.354 2°41.215 274.5 11.6 279 26.3
2009-02-06 09:02:02 51°17.356 2°41.189 274.5 11.6 279 26.2
2009-02-06 09:02:07 51°17.359 2°41.164 274.6 11.6 279 26.1
2009-02-06 09:02:12 51°17.361 2°41.139 274.8 11.6 280 26.1
2009-02-06 09:02:17 51°17.364 2°41.113 275.1 11.6 279 26.1
2009-02-06 09:02:22 51°17.367 2°41.088 275.1 11.6 280 25.9
2009-02-06 09:02:27 51°17.369 2°41.063 275.3 11.7 280 25.8
2009-02-06 09:02:32 51°17.372 2°41.037 275.4 11.7 280 25.7
2009-02-06 09:02:37 51°17.375 2°41.012 275.7 11.7 280 25.7
2009-02-06 09:02:43 51°17.379 2°40.981 275.7 11.7 280 25.7
2009-02-06 09:02:47 51°17.381 2°40.961 275.7 11.6 280 25.4
2009-02-06 09:02:52 51°17.384 2°40.935 276 11.7 280 25.3
2009-02-06 09:02:57 51°17.387 2°40.91 275.8 11.7 280 25.3
2009-02-06 09:03:03 51°17.39 2°40.88 275.4 11.7 279 25
2009-02-06 09:03:07 51°17.392 2°40.859 275.3 11.7 280 25.1
2009-02-06 09:03:12 51°17.395 2°40.834 275.3 11.7 281 24.6
2009-02-06 09:03:17 51°17.398 2°40.808 275.6 11.7 281 24.7
2009-02-06 09:03:23 51°17.402 2°40.778 276.6 11.7 281 24.6
2009-02-06 09:03:27 51°17.404 2°40.757 277.2 11.7 279 24.4
2009-02-06 09:03:32 51°17.406 2°40.732 276.8 11.6 278 24.2
2009-02-06 09:03:37 51°17.409 2°40.707 276.2 11.6 278 24.1
2009-02-06 09:03:42 51°17.411 2°40.681 276.2 11.6 280 23.8
2009-02-06 09:03:47 51°17.414 2°40.656 277.2 11.6 279 23.6
2009-02-06 09:03:52 51°17.417 2°40.631 277.6 11.6 281 22.9
2009-02-06 09:03:57 51°17.42 2°40.606 278.3 11.6 282 22.3
2009-02-06 09:04:02 51°17.423 2°40.581 279.2 11.6 280 22.8
2009-02-06 09:04:07 51°17.426 2°40.556 278.7 11.6 281 22.2
2009-02-06 09:04:12 51°17.428 2°40.53 278.3 11.5 278 21.9
2009-02-06 09:04:17 51°17.431 2°40.505 277.3 11.5 279 21.6
2009-02-06 09:04:22 51°17.433 2°40.48 277 11.4 278 21.3
2009-02-06 09:04:27 51°17.435 2°40.455 276.5 11.5 278 21.2
2009-02-06 09:04:32 51°17.437 2°40.43 275.9 11.4 277 20.6
2009-02-06 09:04:37 51°17.439 2°40.405 275.6 11.4 278 20.5
2009-02-06 09:04:42 51°17.441 2°40.38 275.6 11.4 277 20.4
2009-02-06 09:04:47 51°17.443 2°40.355 275.7 11.4 278 19.1
2009-02-06 09:04:52 51°17.446 2°40.33 276 11.4 278 18.3
2009-02-06 09:04:57 51°17.448 2°40.305 276.1 11.4 278 19.2
2009-02-06 09:05:03 51°17.451 2°40.275 276.3 11.5 280 19
2009-02-06 09:05:07 51°17.453 2°40.255 277.4 11.4 279 18.5
2009-02-06 09:05:12 51°17.456 2°40.23 277.7 11.4 281 17.6
2009-02-06 09:05:17 51°17.458 2°40.205 278.7 11.4 279 17.7
2009-02-06 09:05:23 51°17.462 2°40.176 278.6 11.4 282 17.7
2009-02-06 09:05:27 51°17.465 2°40.156 279.3 11.4 281 17.4
2009-02-06 09:05:32 51°17.468 2°40.131 279.6 11.4 282 16
2009-02-06 09:05:37 51°17.471 2°40.107 279.4 11.4 280 16.4
2009-02-06 09:05:43 51°17.475 2°40.077 279.5 11.4 283 17
2009-02-06 09:05:47 51°17.477 2°40.057 279.7 11.4 279 16.8
2009-02-06 09:05:52 51°17.48 2°40.032 279.1 11.4 282 16.1
2009-02-06 09:05:57 51°17.483 2°40.008 279.3 11.3 280 14.9
2009-02-06 09:06:02 51°17.486 2°39.983 279.2 11.3 283 15
2009-02-06 09:06:07 51°17.489 2°39.959 279.2 11.3 280 16.2
2009-02-06 09:06:12 51°17.492 2°39.934 279.5 11.4 282 16.6
2009-02-06 09:06:17 51°17.496 2°39.91 279.4 11.3 281 15.8
2009-02-06 09:06:22 51°17.498 2°39.885 279 11.3 280 14.3
2009-02-06 09:06:27 51°17.501 2°39.861 278.7 11.2 281 16
2009-02-06 09:06:32 51°17.504 2°39.836 278.8 11.2 280 16.4
2009-02-06 09:06:37 51°17.507 2°39.812 278.6 11.3 281 16.5
2009-02-06 09:06:42 51°17.51 2°39.787 278.8 11.2 280 15.4
2009-02-06 09:06:47 51°17.513 2°39.762 278.5 11.3 281 15.8
2009-02-06 09:06:52 51°17.516 2°39.738 278.3 11.2 280 14.5
2009-02-06 09:06:57 51°17.519 2°39.714 278.4 11.2 281 14.5
2009-02-06 09:07:03 51°17.522 2°39.684 278.4 11.2 280 15.2
2009-02-06 09:07:07 51°17.524 2°39.665 278.2 11.2 280 14.9
2009-02-06 09:07:12 51°17.527 2°39.641 278.3 11.2 281 15.7
2009-02-06 09:07:17 51°17.53 2°39.616 278.4 11.2 281 16.3
2009-02-06 09:07:23 51°17.534 2°39.587 278.5 11.2 281 16.1
2009-02-06 09:07:27 51°17.537 2°39.568 278.7 11.2 281 17.8
2009-02-06 09:07:32 51°17.54 2°39.543 278.7 11.2 282 18.1
2009-02-06 09:07:37 51°17.543 2°39.519 278.4 11.2 281 19.3
2009-02-06 09:07:43 51°17.546 2°39.49 278.1 11.2 282 20.9
2009-02-06 09:07:47 51°17.549 2°39.471 278.3 11.2 281 21.2
2009-02-06 09:07:52 51°17.552 2°39.446 278.3 11.2 282 21.6
2009-02-06 09:07:57 51°17.555 2°39.422 278.3 11.2 281 20
2009-02-06 09:08:02 51°17.558 2°39.397 277.5 11.2 280 20.1
2009-02-06 09:08:07 51°17.561 2°39.373 276.8 11.1 279 20.2
2009-02-06 09:08:12 51°17.562 2°39.349 275.7 11.2 279 20.4
2009-02-06 09:08:17 51°17.566 2°39.324 275.6 11.2 281 20.7
2009-02-06 09:08:22 51°17.568 2°39.3 276.2 11.2 279 21.4
2009-02-06 09:08:27 51°17.572 2°39.276 276.1 11.3 283 22.1
2009-02-06 09:08:32 51°17.574 2°39.251 277 11.3 280 22.9
2009-02-06 09:08:37 51°17.578 2°39.227 277.1 11.3 283 24.1
2009-02-06 09:08:42 51°17.58 2°39.202 277.6 11.2 280 24.6
2009-02-06 09:08:47 51°17.584 2°39.178 277.4 11.3 283 25.3
2009-02-06 09:08:52 51°17.587 2°39.154 277.9 11.3 281 25.9
2009-02-06 09:08:57 51°17.59 2°39.129 277.9 11.3 281 26.4
2009-02-06 09:09:02 51°17.593 2°39.105 277.2 11.3 280 26.9
2009-02-06 09:09:07 51°17.596 2°39.08 276.3 11.3 281 27.4
2009-02-06 09:09:12 51°17.599 2°39.055 276.1 11.3 280 27.5
2009-02-06 09:09:17 51°17.601 2°39.031 275.6 11.3 280 27.9
2009-02-06 09:09:23 51°17.604 2°39.001 274.9 11.3 278 28.1
2009-02-06 09:09:27 51°17.606 2°38.982 274.4 11.3 280 28.3
2009-02-06 09:09:32 51°17.609 2°38.957 274.7 11.3 279 28.7
2009-02-06 09:09:37 51°17.611 2°38.932 274.7 11.3 280 28.9
2009-02-06 09:09:43 51°17.615 2°38.903 275.1 11.3 280 29.2
2009-02-06 09:09:47 51°17.617 2°38.883 275.1 11.3 280 29.4
2009-02-06 09:09:52 51°17.62 2°38.858 275.3 11.3 281 29.5
2009-02-06 09:09:57 51°17.623 2°38.834 275.7 11.4 281 29.6
2009-02-06 09:10:03 51°17.626 2°38.804 275.9 11.4 280 29.6
2009-02-06 09:10:07 51°17.629 2°38.784 275.5 11.4 281 29.6
2009-02-06 09:10:12 51°17.631 2°38.759 276 11.4 280 29.5
2009-02-06 09:10:17 51°17.635 2°38.735 275.7 11.4 282 29.5
2009-02-06 09:10:22 51°17.638 2°38.71 276.1 11.4 281 29.4
2009-02-06 09:10:27 51°17.641 2°38.685 276.1 11.4 281 29.1
2009-02-06 09:10:32 51°17.644 2°38.661 276.1 11.4 280 29.2
2009-02-06 09:10:37 51°17.646 2°38.636 275.7 11.4 280 29.2
2009-02-06 09:10:42 51°17.649 2°38.611 275.5 11.4 280 29.4
2009-02-06 09:10:47 51°17.652 2°38.586 275.3 11.4 281 29.6
2009-02-06 09:10:52 51°17.655 2°38.562 275.9 11.4 281 29.7
2009-02-06 09:10:57 51°17.658 2°38.537 276 11.4 281 29.7
2009-02-06 09:11:02 51°17.661 2°38.512 276 11.4 282 29.7
2009-02-06 09:11:07 51°17.665 2°38.487 276.3 11.4 281 29.7
2009-02-06 09:11:12 51°17.668 2°38.463 276.6 11.4 282 29.8
2009-02-06 09:11:17 51°17.671 2°38.438 276.4 11.4 281 29.7
2009-02-06 09:11:23 51°17.675 2°38.408 276.5 11.4 281 29.7
2009-02-06 09:11:27 51°17.677 2°38.388 276.1 11.4 281 29.4
2009-02-06 09:11:32 51°17.68 2°38.364 276.3 11.4 281 29.6
2009-02-06 09:11:37 51°17.683 2°38.339 276.1 11.4 281 29.6
2009-02-06 09:11:43 51°17.687 2°38.309 276.1 11.4 281 29.5
2009-02-06 09:11:47 51°17.689 2°38.289 276 11.4 281 29.7
2009-02-06 09:11:52 51°17.692 2°38.265 276 11.4 281 29.7
2009-02-06 09:11:57 51°17.696 2°38.24 276 11.4 282 29.6
2009-02-06 09:12:03 51°17.699 2°38.21 276 11.4 282 29.6
2009-02-06 09:12:07 51°17.702 2°38.19 276.7 11.5 283 29.4
2009-02-06 09:12:12 51°17.706 2°38.166 277.6 11.5 283 29.4
2009-02-06 09:12:17 51°17.709 2°38.141 277.7 11.4 282 29.4
2009-02-06 09:12:23 51°17.713 2°38.111 277.2 11.4 283 29.4
2009-02-06 09:12:27 51°17.716 2°38.091 277 11.4 282 29.6
2009-02-06 09:12:32 51°17.719 2°38.067 276.9 11.5 283 29.6
2009-02-06 09:12:37 51°17.723 2°38.042 277.2 11.5 283 29.6
2009-02-06 09:12:42 51°17.727 2°38.017 278 11.5 285 29.1
2009-02-06 09:12:47 51°17.731 2°37.993 278.9 11.5 284 29.4
2009-02-06 09:12:52 51°17.735 2°37.968 279.3 11.6 285 29.6
2009-02-06 09:12:57 51°17.74 2°37.944 279.6 11.6 286 29.7
2009-02-06 09:13:02 51°17.744 2°37.919 279.9 11.6 285 29.4
2009-02-06 09:13:07 51°17.748 2°37.894 279.8 11.6 285 29.5
2009-02-06 09:13:12 51°17.752 2°37.869 279.5 11.6 284 29.5
2009-02-06 09:13:17 51°17.756 2°37.845 279.2 11.6 285 29.9
2009-02-06 09:13:22 51°17.76 2°37.82 279.1 11.6 284 29.5
2009-02-06 09:13:27 51°17.764 2°37.795 279.1 11.6 284 29.6
2009-02-06 09:13:32 51°17.768 2°37.77 279 11.6 285 29.5
2009-02-06 09:13:37 51°17.772 2°37.746 279.4 11.6 286 29.6
2009-02-06 09:13:43 51°17.777 2°37.716 280.3 11.5 285 29.4
2009-02-06 09:13:47 51°17.78 2°37.697 280.4 11.3 283 29.1
2009-02-06 09:13:52 51°17.784 2°37.673 279.6 11.2 285 29.6
2009-02-06 09:13:57 51°17.788 2°37.649 279.6 11.3 284 29.1
2009-02-06 09:14:02 51°17.792 2°37.624 279.4 11.3 284 29.3
2009-02-06 09:14:07 51°17.796 2°37.6 279.5 11.4 284 29.5
2009-02-06 09:14:12 51°17.799 2°37.576 279.4 11.5 283 29.3
2009-02-06 09:14:17 51°17.803 2°37.551 279.4 11.5 284 28.8
2009-02-06 09:14:23 51°17.808 2°37.521 279.4 11.5 284 28.7
2009-02-06 09:14:27 51°17.812 2°37.502 280 11.6 286 28.7
2009-02-06 09:14:32 51°17.815 2°37.477 280.9 11.6 285 28.2
2009-02-06 09:14:37 51°17.82 2°37.452 280.8 11.6 284 28.1
2009-02-06 09:14:42 51°17.823 2°37.427 280.3 11.7 284 27.6
2009-02-06 09:14:47 51°17.827 2°37.402 279.7 11.7 283 27.3
2009-02-06 09:14:52 51°17.831 2°37.377 279.8 11.7 285 27.7
2009-02-06 09:14:57 51°17.835 2°37.352 280.6 11.7 285 27.7
2009-02-06 09:15:02 51°17.84 2°37.327 281.2 11.7 285 27.7
2009-02-06 09:15:07 51°17.844 2°37.302 281.6 11.7 284 27.1
2009-02-06 09:15:12 51°17.847 2°37.277 280.8 11.7 284 27.2
2009-02-06 09:15:17 51°17.852 2°37.253 280.1 11.7 285 26.6
2009-02-06 09:15:22 51°17.856 2°37.227 280.7 11.7 285 26.3
2009-02-06 09:15:27 51°17.86 2°37.202 281.3 11.7 285 26.4
2009-02-06 09:15:32 51°17.865 2°37.177 281.9 11.7 287 25.8
2009-02-06 09:15:37 51°17.869 2°37.152 282.7 11.7 283 25.5
2009-02-06 09:15:43 51°17.874 2°37.122 281.7 11.7 285 25
2009-02-06 09:15:47 51°17.877 2°37.102 281.2 11.7 283 25.3
2009-02-06 09:15:52 51°17.881 2°37.077 280.8 11.8 286 24.6
2009-02-06 09:15:57 51°17.885 2°37.052 281.3 11.7 284 23.8
2009-02-06 09:16:02 51°17.889 2°37.027 281.8 11.6 283 22.9
2009-02-06 09:16:07 51°17.893 2°37.002 280.7 11.7 284 23.7
2009-02-06 09:16:12 51°17.896 2°36.977 280.2 11.6 281 24.6
2009-02-06 09:16:17 51°17.9 2°36.952 279 11.6 284 24
2009-02-06 09:16:23 51°17.903 2°36.921 279.2 11.6 280 23.4
2009-02-06 09:16:27 51°17.906 2°36.902 278.8 11.6 282 23.1
2009-02-06 09:16:32 51°17.909 2°36.876 278.7 11.6 282 22.8
2009-02-06 09:16:37 51°17.912 2°36.851 278.9 11.6 283 22.4
2009-02-06 09:16:43 51°17.916 2°36.821 279.7 11.5 281 22.3
2009-02-06 09:16:47 51°17.919 2°36.801 278.8 11.6 283 21.4
2009-02-06 09:16:52 51°17.923 2°36.776 279.1 11.6 281 20.8
2009-02-06 09:16:57 51°17.926 2°36.751 279.2 11.6 282 21.9
2009-02-06 09:17:03 51°17.93 2°36.721 279 11.7 284 22
2009-02-06 09:17:07 51°17.934 2°36.701 280.5 11.6 283 21.5
2009-02-06 09:17:12 51°17.937 2°36.676 280.8 11.6 284 20.6
2009-02-06 09:17:17 51°17.941 2°36.651 280.9 11.7 284 20
2009-02-06 09:17:22 51°17.945 2°36.626 281.5 11.7 285 20.8
2009-02-06 09:17:27 51°17.949 2°36.601 281.3 11.7 282 20
2009-02-06 09:17:32 51°17.953 2°36.576 280.5 11.7 286 19.5
2009-02-06 09:17:37 51°17.957 2°36.551 281.2 11.6 284 19.2
2009-02-06 09:17:42 51°17.961 2°36.526 281.7 11.6 286 18.6
2009-02-06 09:17:47 51°17.965 2°36.501 282.4 11.6 284 17.8
2009-02-06 09:17:52 51°17.969 2°36.477 282.5 11.5 285 18.6
2009-02-06 09:17:57 51°17.973 2°36.452 282.5 11.6 284 18.5
2009-02-06 09:18:02 51°17.978 2°36.427 282.1 11.6 285 17.9
2009-02-06 09:18:07 51°17.982 2°36.402 281.9 11.5 284 17.2
2009-02-06 09:18:12 51°17.986 2°36.378 281.9 11.6 285 16.2
2009-02-06 09:18:17 51°17.99 2°36.353 282.1 11.5 285 15.9
2009-02-06 09:18:22 51°17.994 2°36.329 282.6 11.4 283 15.1
2009-02-06 09:18:27 51°17.997 2°36.304 281.9 11.4 283 16.8
2009-02-06 09:18:32 51°18.001 2°36.279 281.2 11.5 282 16.2
2009-02-06 09:18:37 51°18.004 2°36.255 280 11.4 282 16.3
2009-02-06 09:18:43 51°18.008 2°36.225 279.6 11.5 282 15.8
2009-02-06 09:18:47 51°18.011 2°36.205 279.7 11.5 284 15.8
2009-02-06 09:18:52 51°18.015 2°36.18 280.6 11.4 283 15.1
2009-02-06 09:18:57 51°18.019 2°36.156 280.6 11.4 285 15.9
2009-02-06 09:19:03 51°18.023 2°36.126 281.3 11.5 283 15.7
2009-02-06 09:19:07 51°18.026 2°36.107 281.1 11.4 283 15
2009-02-06 09:19:12 51°18.029 2°36.082 280 11.4 282 14.8
2009-02-06 09:19:17 51°18.033 2°36.058 279.6 11.4 284 14.7
2009-02-06 09:19:22 51°18.036 2°36.033 280.3 11.4 283 14.9
2009-02-06 09:19:27 51°18.04 2°36.009 280.9 11.4 284 14.7
2009-02-06 09:19:32 51°18.045 2°35.984 281.2 11.5 285 15.9
2009-02-06 09:19:37 51°18.048 2°35.96 281.9 11.4 284 16.3
2009-02-06 09:19:42 51°18.052 2°35.935 281.6 11.4 283 18
2009-02-06 09:19:47 51°18.056 2°35.91 280.5 11.5 284 19.1
2009-02-06 09:19:52 51°18.059 2°35.886 280.2 11.5 281 19.3
2009-02-06 09:19:57 51°18.062 2°35.861 279.6 11.5 283 18.1
2009-02-06 09:20:02 51°18.066 2°35.836 279.3 11.4 281 18.8
2009-02-06 09:20:07 51°18.069 2°35.811 278.9 11.5 281 20.1
2009-02-06 09:20:12 51°18.072 2°35.786 278.3 11.5 281 19.9
2009-02-06 09:20:17 51°18.075 2°35.761 278.3 11.5 281 17.4
2009-02-06 09:20:22 51°18.078 2°35.736 278.3 11.5 282 19.9
2009-02-06 09:20:27 51°18.081 2°35.711 278.7 11.5 282 21
2009-02-06 09:20:32 51°18.085 2°35.686 279.4 11.6 283 22.1
2009-02-06 09:20:37 51°18.089 2°35.661 279.9 11.6 285 22.1
2009-02-06 09:20:42 51°18.093 2°35.637 281.1 11.6 285 21.6
2009-02-06 09:20:47 51°18.098 2°35.612 281.6 11.6 289 18.5
2009-02-06 09:20:52 51°18.104 2°35.588 284.6 11.6 292 20.4
2009-02-06 09:20:58 51°18.111 2°35.56 287.4 11.6 292 21.4
2009-02-06 09:21:03 51°18.118 2°35.536 289.1 11.7 295 22.6
2009-02-06 09:21:07 51°18.124 2°35.517 290.5 11.7 294 23.7
2009-02-06 09:21:12 51°18.131 2°35.494 291.3 11.7 299 24.4
2009-02-06 09:21:17 51°18.139 2°35.472 293.6 11.7 298 25.3
2009-02-06 09:21:23 51°18.149 2°35.445 294.3 11.8 301 26.6
2009-02-06 09:21:27 51°18.156 2°35.427 296.1 11.8 300 28.3
2009-02-06 09:21:32 51°18.164 2°35.404 296.3 11.8 302 29.3
2009-02-06 09:21:37 51°18.173 2°35.382 297.4 11.9 301 26
2009-02-06 09:21:42 51°18.182 2°35.36 297.7 11.9 303 23.7
2009-02-06 09:21:47 51°18.191 2°35.338 298.4 11.8 305 26.1
2009-02-06 09:21:52 51°18.201 2°35.317 299.5 11.8 304 27.8
2009-02-06 09:21:57 51°18.21 2°35.295 300 11.8 306 28.9
2009-02-06 09:22:02 51°18.219 2°35.274 300.3 11.8 305 29.7
2009-02-06 09:22:07 51°18.229 2°35.253 300.8 11.8 305 30.3
2009-02-06 09:22:12 51°18.238 2°35.231 300.4 11.8 304 30.9
2009-02-06 09:22:17 51°18.247 2°35.209 300.2 11.8 305 31.4
2009-02-06 09:22:22 51°18.257 2°35.188 300.1 11.8 306 31.6
2009-02-06 09:22:27 51°18.267 2°35.167 300.6 11.8 305 27.2
2009-02-06 09:22:32 51°18.276 2°35.145 300.7 11.7 305 28.2
2009-02-06 09:22:37 51°18.286 2°35.125 300.2 11.7 307 29
2009-02-06 09:22:42 51°18.295 2°35.103 300.5 11.8 305 29.5
2009-02-06 09:22:47 51°18.305 2°35.082 300.1 11.7 306 29.7
2009-02-06 09:22:52 51°18.314 2°35.061 300 11.7 304 29.9
2009-02-06 09:22:57 51°18.324 2°35.039 299.6 11.8 305 29.8
2009-02-06 09:23:03 51°18.335 2°35.013 299.4 11.8 304 29.6
2009-02-06 09:23:07 51°18.342 2°34.996 299 11.8 305 29.5
2009-02-06 09:23:12 51°18.351 2°34.975 298.9 11.8 304 29.4
2009-02-06 09:23:17 51°18.361 2°34.953 298.9 11.8 305 29.1
2009-02-06 09:23:23 51°18.372 2°34.927 299.2 11.8 304 29
2009-02-06 09:23:27 51°18.38 2°34.91 299.5 11.8 305 28.9
2009-02-06 09:23:32 51°18.388 2°34.888 299.1 11.8 303 28.9
2009-02-06 09:23:37 51°18.398 2°34.867 298.7 11.8 303 27.4
2009-02-06 09:23:43 51°18.408 2°34.84 298.2 11.8 303 26.8
2009-02-06 09:23:47 51°18.415 2°34.823 297.4 11.8 302 25.3
2009-02-06 09:23:52 51°18.424 2°34.8 297.1 11.8 301 24.2
2009-02-06 09:23:57 51°18.432 2°34.778 296.4 11.8 301 22.8
2009-02-06 09:24:02 51°18.441 2°34.755 295.8 11.9 302 21.3
2009-02-06 09:24:07 51°18.45 2°34.733 296 11.9 303 21.6
2009-02-06 09:24:12 51°18.459 2°34.712 297.5 11.9 303 21.5
2009-02-06 09:24:17 51°18.468 2°34.689 297.8 11.9 304 21.7
2009-02-06 09:24:22 51°18.477 2°34.668 298.1 11.9 303 22.1
2009-02-06 09:24:27 51°18.486 2°34.645 297.9 12 304 22.6
2009-02-06 09:24:32 51°18.496 2°34.624 298.5 12 303 24.7
2009-02-06 09:24:37 51°18.505 2°34.601 298.5 12 304 25.6
2009-02-06 09:24:42 51°18.514 2°34.579 298.5 12 303 26
2009-02-06 09:24:47 51°18.523 2°34.557 298.4 11.9 304 26.2
2009-02-06 09:24:52 51°18.532 2°34.535 298.6 11.9 304 25.9
2009-02-06 09:24:57 51°18.541 2°34.513 298.6 11.9 303 26.2
2009-02-06 09:25:02 51°18.551 2°34.491 298.6 11.8 304 26.2
2009-02-06 09:25:07 51°18.559 2°34.469 298.6 11.9 303 26.1
2009-02-06 09:25:12 51°18.568 2°34.448 298.2 11.9 303 25.7
2009-02-06 09:25:17 51°18.577 2°34.425 298.5 11.9 303 25.6
2009-02-06 09:25:23 51°18.588 2°34.399 298.5 11.9 303 25.4
2009-02-06 09:25:27 51°18.595 2°34.381 298.1 11.9 303 25.2
2009-02-06 09:25:32 51°18.604 2°34.359 298.6 11.9 302 24.9
2009-02-06 09:25:37 51°18.613 2°34.337 298.2 11.9 302 25.1
2009-02-06 09:25:43 51°18.624 2°34.311 297.9 11.8 303 24.4
2009-02-06 09:25:47 51°18.631 2°34.293 298.2 11.8 302 24.4
2009-02-06 09:25:52 51°18.639 2°34.27 297.4 11.8 299 23.8
2009-02-06 09:25:57 51°18.647 2°34.247 295.8 11.8 300 23.8
2009-02-06 09:26:03 51°18.656 2°34.22 295.6 11.7 298 23.1
2009-02-06 09:26:07 51°18.662 2°34.201 294.5 11.7 297 22.6
2009-02-06 09:26:12 51°18.67 2°34.178 293.1 11.8 297 22.4
2009-02-06 09:26:17 51°18.677 2°34.155 292.6 11.7 294 22.5
2009-02-06 09:26:22 51°18.684 2°34.131 291.6 11.7 295 22
2009-02-06 09:26:27 51°18.69 2°34.107 291 11.6 292 21.2
2009-02-06 09:26:32 51°18.696 2°34.084 289.7 11.7 294 20.2